createdAt,value
2019-02-19T00:01:33.086Z,3.70
2019-02-19T00:04:00.568Z,3.70
2019-02-19T00:06:27.944Z,3.90
2019-02-19T00:08:55.322Z,3.90
2019-02-19T00:11:22.780Z,3.90
2019-02-19T00:13:50.274Z,4.00
2019-02-19T00:16:17.613Z,4.10
2019-02-19T00:18:44.990Z,4.00
2019-02-19T00:21:12.452Z,3.90
2019-02-19T00:23:40.141Z,4.10
2019-02-19T00:26:12.389Z,4.00
2019-02-19T00:28:40.064Z,4.00
2019-02-19T00:31:07.487Z,4.10
2019-02-19T00:33:34.838Z,4.10
2019-02-19T00:36:02.615Z,4.00
2019-02-19T00:38:30.088Z,4.00
2019-02-19T00:40:57.698Z,4.10
2019-02-19T00:43:29.760Z,4.20
2019-02-19T00:45:57.193Z,4.20
2019-02-19T00:48:24.551Z,4.10
2019-02-19T00:50:51.834Z,4.10
2019-02-19T00:53:19.075Z,4.30
2019-02-19T00:55:46.579Z,4.20
2019-02-19T00:58:13.917Z,4.20
2019-02-19T01:00:41.678Z,4.30
2019-02-19T01:03:09.152Z,4.30
2019-02-19T01:05:36.489Z,4.30
2019-02-19T01:08:04.010Z,4.30
2019-02-19T01:10:31.468Z,4.20
2019-02-19T01:12:58.939Z,4.10
2019-02-19T01:15:26.384Z,4.00
2019-02-19T01:17:53.676Z,3.90
2019-02-19T01:20:21.118Z,3.90
2019-02-19T01:22:48.494Z,3.90
2019-02-19T01:25:15.968Z,4.00
2019-02-19T01:27:43.346Z,4.00
2019-02-19T01:30:11.095Z,4.00
2019-02-19T01:32:38.486Z,4.00
2019-02-19T01:35:06.490Z,4.00
2019-02-19T01:37:33.836Z,4.00
2019-02-19T01:40:01.200Z,4.00
2019-02-19T01:42:28.604Z,3.90
2019-02-19T01:44:55.938Z,3.90
2019-02-19T01:47:24.990Z,3.90
2019-02-19T01:49:52.386Z,3.90
2019-02-19T01:52:19.980Z,4.00
2019-02-19T01:54:47.319Z,4.00
2019-02-19T01:57:14.699Z,4.00
2019-02-19T01:59:42.416Z,3.90
2019-02-19T02:02:09.792Z,3.90
2019-02-19T02:04:37.197Z,4.00
2019-02-19T02:07:04.669Z,3.90
2019-02-19T02:09:31.959Z,3.90
2019-02-19T02:11:59.394Z,3.90
2019-02-19T02:14:26.884Z,4.00
2019-02-19T02:16:54.294Z,4.00
2019-02-19T02:19:21.831Z,4.00
2019-02-19T02:21:49.195Z,4.00
2019-02-19T02:24:16.692Z,4.10
2019-02-19T02:26:44.241Z,4.10
2019-02-19T02:29:11.618Z,4.10
2019-02-19T02:31:39.008Z,4.10
2019-02-19T02:34:06.395Z,4.30
2019-02-19T02:36:33.856Z,4.20
2019-02-19T02:39:01.215Z,4.00
2019-02-19T02:41:28.508Z,4.00
2019-02-19T02:43:55.995Z,4.00
2019-02-19T02:46:23.436Z,3.90
2019-02-19T02:48:51.067Z,3.90
2019-02-19T02:51:18.336Z,3.80
2019-02-19T02:53:45.599Z,3.80
2019-02-19T02:56:12.961Z,3.80
2019-02-19T02:58:40.321Z,3.70
2019-02-19T03:01:07.715Z,3.80
2019-02-19T03:03:35.078Z,3.80
2019-02-19T03:06:30.756Z,3.80
2019-02-19T03:08:58.225Z,3.90
2019-02-19T03:11:25.875Z,3.80
2019-02-19T03:13:53.253Z,3.90
2019-02-19T03:16:20.599Z,3.90
2019-02-19T03:18:48.108Z,3.80
2019-02-19T03:21:15.616Z,3.80
2019-02-19T03:23:43.187Z,3.80
2019-02-19T03:26:10.897Z,3.80
2019-02-19T03:28:38.231Z,3.90
2019-02-19T03:31:05.600Z,3.90
2019-02-19T03:33:33.023Z,3.80
2019-02-19T03:36:00.405Z,3.80
2019-02-19T03:38:27.840Z,3.80
2019-02-19T03:40:55.207Z,3.70
2019-02-19T03:43:22.528Z,3.60
2019-02-19T03:45:49.847Z,3.50
2019-02-19T03:48:17.163Z,3.50
2019-02-19T03:50:44.511Z,3.60
2019-02-19T03:53:11.768Z,3.60
2019-02-19T03:55:39.096Z,3.60
2019-02-19T03:58:06.428Z,3.60
2019-02-19T04:00:33.739Z,3.50
2019-02-19T04:03:00.992Z,3.50
2019-02-19T04:05:28.327Z,3.80
2019-02-19T04:07:55.663Z,3.80
2019-02-19T04:10:22.913Z,3.90
2019-02-19T04:12:50.238Z,4.00
2019-02-19T04:15:17.614Z,3.90
2019-02-19T04:17:44.912Z,4.00
2019-02-19T04:20:12.244Z,4.00
2019-02-19T04:22:39.579Z,4.10
2019-02-19T04:25:06.886Z,4.10
2019-02-19T04:27:34.424Z,4.10
2019-02-19T04:30:01.687Z,4.10
2019-02-19T04:32:28.944Z,3.90
2019-02-19T04:34:56.270Z,3.80
2019-02-19T04:37:23.507Z,3.80
2019-02-19T04:39:50.805Z,3.70
2019-02-19T04:42:18.119Z,3.90
2019-02-19T04:44:45.463Z,4.10
2019-02-19T04:47:12.873Z,4.10
2019-02-19T04:49:40.207Z,4.10
2019-02-19T04:52:07.419Z,4.00
2019-02-19T04:54:34.956Z,3.90
2019-02-19T04:57:02.288Z,3.90
2019-02-19T04:59:29.620Z,4.00
2019-02-19T05:01:56.967Z,4.00
2019-02-19T05:04:24.217Z,4.00
2019-02-19T05:06:51.634Z,4.00
2019-02-19T05:09:19.053Z,4.00
2019-02-19T05:11:46.543Z,4.00
2019-02-19T05:14:13.862Z,4.00
2019-02-19T05:16:41.322Z,4.00
2019-02-19T05:19:08.690Z,4.00
2019-02-19T05:21:36.002Z,4.10
2019-02-19T05:24:03.697Z,4.00
2019-02-19T05:26:31.032Z,4.10
2019-02-19T05:28:58.672Z,4.10
2019-02-19T05:31:26.077Z,4.00
2019-02-19T05:33:53.407Z,4.00
2019-02-19T05:36:20.757Z,4.00
2019-02-19T05:38:47.984Z,4.00
2019-02-19T05:41:15.524Z,4.00
2019-02-19T05:43:42.816Z,4.10
2019-02-19T05:46:10.080Z,4.00
2019-02-19T05:48:38.202Z,4.10
2019-02-19T05:51:05.533Z,4.10
2019-02-19T05:53:33.327Z,4.20
2019-02-19T05:56:00.623Z,4.30
2019-02-19T05:58:27.938Z,4.30
2019-02-19T06:00:55.347Z,4.30
2019-02-19T06:03:22.543Z,4.30
2019-02-19T06:05:49.799Z,4.30
2019-02-19T06:08:16.995Z,4.30
2019-02-19T06:10:44.434Z,4.40
2019-02-19T06:13:11.748Z,4.60
2019-02-19T06:15:38.997Z,4.60
2019-02-19T06:18:06.204Z,4.80
2019-02-19T06:20:33.527Z,4.90
2019-02-19T06:23:00.758Z,4.80
2019-02-19T06:25:28.290Z,4.90
2019-02-19T06:27:55.581Z,4.80
2019-02-19T06:30:22.950Z,4.80
2019-02-19T06:32:50.316Z,4.90
2019-02-19T06:35:17.648Z,4.80
2019-02-19T06:37:45.015Z,4.70
2019-02-19T06:40:24.632Z,4.70
2019-02-19T06:42:52.096Z,4.70
2019-02-19T06:45:19.391Z,4.70
2019-02-19T06:47:46.623Z,4.60
2019-02-19T06:50:13.946Z,4.60
2019-02-19T06:52:41.288Z,4.70
2019-02-19T06:55:08.495Z,4.60
2019-02-19T06:57:35.939Z,4.60
2019-02-19T07:00:03.882Z,4.60
2019-02-19T07:02:50.896Z,4.60
2019-02-19T07:05:22.477Z,4.60
2019-02-19T07:07:49.779Z,4.60
2019-02-19T07:10:17.047Z,4.50
2019-02-19T07:12:44.394Z,4.50
2019-02-19T07:15:11.825Z,4.60
2019-02-19T07:17:39.159Z,4.50
2019-02-19T07:20:06.531Z,4.60
2019-02-19T07:22:33.884Z,4.60
2019-02-19T07:25:01.185Z,4.50
2019-02-19T07:27:28.424Z,4.50
2019-02-19T07:29:55.641Z,4.50
2019-02-19T07:32:22.994Z,4.60
2019-02-19T07:34:50.473Z,4.70
2019-02-19T07:37:17.784Z,4.70
2019-02-19T07:39:45.292Z,4.70
2019-02-19T07:42:12.626Z,4.80
2019-02-19T07:44:39.924Z,4.80
2019-02-19T07:47:07.275Z,4.80
2019-02-19T07:49:43.648Z,4.80
2019-02-19T07:52:11.056Z,4.80
2019-02-19T07:54:38.487Z,4.80
2019-02-19T07:57:59.665Z,4.80
2019-02-19T08:00:26.759Z,4.90
2019-02-19T08:02:54.007Z,4.80
2019-02-19T08:05:21.397Z,4.80
2019-02-19T08:07:48.704Z,4.70
2019-02-19T08:10:16.042Z,4.80
2019-02-19T08:12:43.376Z,4.80
2019-02-19T08:15:10.729Z,4.80
2019-02-19T08:17:38.089Z,4.80
2019-02-19T08:20:05.500Z,4.90
2019-02-19T08:22:32.812Z,4.90
2019-02-19T08:25:00.350Z,5.00
2019-02-19T08:27:27.643Z,5.00
2019-02-19T08:29:55.012Z,5.10
2019-02-19T08:32:22.290Z,5.20
2019-02-19T08:34:50.394Z,5.20
2019-02-19T08:37:17.731Z,5.30
2019-02-19T08:39:45.090Z,5.30
2019-02-19T08:42:12.452Z,5.50
2019-02-19T08:44:39.796Z,5.50
2019-02-19T08:47:07.148Z,5.60
2019-02-19T08:49:34.483Z,5.70
2019-02-19T08:52:01.783Z,5.70
2019-02-19T08:54:29.152Z,5.70
2019-02-19T08:56:56.496Z,5.60
2019-02-19T08:59:24.376Z,5.50
2019-02-19T09:01:52.038Z,5.50
2019-02-19T09:04:19.398Z,5.60
2019-02-19T09:06:46.730Z,5.60
2019-02-19T09:09:14.027Z,5.70
2019-02-19T09:11:41.310Z,5.70
2019-02-19T09:14:08.742Z,5.60
2019-02-19T09:17:05.953Z,5.60
2019-02-19T09:19:33.265Z,5.70
2019-02-19T09:22:00.856Z,5.70
2019-02-19T09:24:28.181Z,5.70
2019-02-19T09:26:55.509Z,5.80
2019-02-19T09:29:23.012Z,5.80
2019-02-19T09:31:50.343Z,5.70
2019-02-19T09:34:17.741Z,5.80
2019-02-19T09:36:45.159Z,5.80
2019-02-19T09:39:12.604Z,5.90
2019-02-19T09:41:39.986Z,5.90
2019-02-19T09:44:07.867Z,5.90
2019-02-19T09:46:35.316Z,5.90
2019-02-19T09:49:02.780Z,5.80
2019-02-19T09:51:30.286Z,5.90
2019-02-19T09:54:04.008Z,5.80
2019-02-19T09:59:28.532Z,5.90
2019-02-19T10:06:42.456Z,5.90
2019-02-19T10:09:36.388Z,5.90
2019-02-19T10:12:04.526Z,5.80
2019-02-19T10:14:32.282Z,5.80
2019-02-19T10:17:18.148Z,5.80
2019-02-19T10:20:04.217Z,5.70
2019-02-19T10:29:04.881Z,5.70
2019-02-19T10:32:13.664Z,5.60
2019-02-19T10:49:32.925Z,5.30
2019-02-19T11:02:56.070Z,5.20
2019-02-19T11:05:23.985Z,5.40
2019-02-19T11:08:28.416Z,5.40
2019-02-19T11:21:26.948Z,5.60
2019-02-19T11:24:08.579Z,5.80
2019-02-19T11:26:36.859Z,5.80
2019-02-19T11:29:06.879Z,6.10
2019-02-19T11:31:34.389Z,6.20
2019-02-19T11:34:01.836Z,6.30
2019-02-19T11:36:29.848Z,6.30
2019-02-19T11:38:57.353Z,6.20
2019-02-19T11:41:26.837Z,6.20
2019-02-19T11:43:56.413Z,6.20
2019-02-19T11:46:25.657Z,6.30
2019-02-19T11:48:52.992Z,6.30
2019-02-19T11:51:20.302Z,6.40
2019-02-19T11:53:47.668Z,6.40
2019-02-19T11:56:15.004Z,6.40
2019-02-19T11:58:43.057Z,6.40
2019-02-19T12:01:10.660Z,6.30
2019-02-19T12:04:06.820Z,6.20
2019-02-19T12:06:34.600Z,6.20
2019-02-19T12:09:02.203Z,6.10
2019-02-19T12:11:29.674Z,6.00
2019-02-19T12:25:07.035Z,5.80
2019-02-19T12:28:10.058Z,5.80
2019-02-19T12:30:40.709Z,5.80
2019-02-19T12:36:50.180Z,5.70
2019-02-19T12:40:25.399Z,5.60
2019-02-19T12:44:09.122Z,5.60
2019-02-19T12:54:16.776Z,5.60
2019-02-19T12:57:07.877Z,5.60
2019-02-19T13:00:04.538Z,5.60
2019-02-19T13:02:32.191Z,5.60
2019-02-19T13:04:59.778Z,5.60
2019-02-19T13:07:48.891Z,5.60
2019-02-19T13:10:37.404Z,5.60
2019-02-19T13:13:42.667Z,5.60
2019-02-19T13:24:18.454Z,5.40
2019-02-19T13:27:10.927Z,5.30
2019-02-19T13:40:42.041Z,5.30
2019-02-19T13:47:34.989Z,5.30
2019-02-19T14:07:48.965Z,5.40
2019-02-19T14:10:44.305Z,5.40
2019-02-19T14:16:23.089Z,5.40
2019-02-19T14:19:21.178Z,5.40
2019-02-19T14:22:02.419Z,5.40
2019-02-19T14:24:48.643Z,5.30
2019-02-19T14:27:35.610Z,5.40
2019-02-19T14:30:28.257Z,5.40
2019-02-19T14:33:18.022Z,5.40
2019-02-19T14:36:07.808Z,5.40
2019-02-19T14:38:57.700Z,5.30
2019-02-19T14:41:43.048Z,5.30
2019-02-19T14:44:28.077Z,5.30
2019-02-19T14:47:17.972Z,5.20
2019-02-19T14:50:10.875Z,5.10
2019-02-19T14:53:06.779Z,5.00
2019-02-19T14:56:02.859Z,5.00
2019-02-19T14:58:57.685Z,5.00
2019-02-19T15:01:56.920Z,4.90
2019-02-19T15:04:35.996Z,4.90
2019-02-19T15:07:34.788Z,4.80
2019-02-19T15:10:39.750Z,4.80
2019-02-19T15:13:25.715Z,4.80
2019-02-19T15:16:05.272Z,4.70
2019-02-19T15:18:55.129Z,4.70
2019-02-19T15:21:42.011Z,4.80
2019-02-19T15:24:19.992Z,4.70
2019-02-19T15:27:09.576Z,4.80
2019-02-19T15:29:59.787Z,4.80
2019-02-19T15:33:04.827Z,4.80
2019-02-19T15:35:49.993Z,4.70
2019-02-19T15:38:48.878Z,4.80
2019-02-19T15:41:27.092Z,4.70
2019-02-19T15:44:03.355Z,4.70
2019-02-19T15:47:02.047Z,4.70
2019-02-19T15:49:49.236Z,4.80
2019-02-19T15:52:28.968Z,4.70
2019-02-19T15:55:12.134Z,4.70
2019-02-19T15:58:04.856Z,4.60
2019-02-19T16:00:46.324Z,4.70
2019-02-19T16:03:42.233Z,4.70
2019-02-19T16:06:17.313Z,4.70
2019-02-19T16:08:52.196Z,4.70
2019-02-19T16:11:41.739Z,4.60
2019-02-19T16:14:31.589Z,4.60
2019-02-19T16:17:16.852Z,4.60
2019-02-19T16:19:56.821Z,4.60
2019-02-19T16:22:36.459Z,4.60
2019-02-19T16:25:26.382Z,4.50
2019-02-19T16:28:22.237Z,4.50
2019-02-19T16:31:05.384Z,4.40
2019-02-19T16:33:52.369Z,4.40
2019-02-19T16:36:33.083Z,4.40
2019-02-19T16:39:18.274Z,4.30
2019-02-19T16:42:02.279Z,4.30
2019-02-19T16:44:57.952Z,4.20
2019-02-19T16:47:32.617Z,4.20
2019-02-19T16:50:17.350Z,4.20
2019-02-19T16:52:57.443Z,4.20
2019-02-19T16:55:33.337Z,4.30
2019-02-19T16:58:11.255Z,4.20
2019-02-19T17:00:44.761Z,4.20
2019-02-19T17:03:30.180Z,4.20
2019-02-19T17:06:10.024Z,4.20
2019-02-19T17:08:52.428Z,4.20
2019-02-19T17:11:39.690Z,4.20
2019-02-19T17:14:41.349Z,4.20
2019-02-19T17:17:30.936Z,4.20
2019-02-19T17:20:16.391Z,4.20
2019-02-19T17:22:42.189Z,4.20
2019-02-19T17:25:17.050Z,4.20
2019-02-19T17:28:04.040Z,4.20
2019-02-19T17:30:56.797Z,4.20
2019-02-19T17:33:33.561Z,4.20
2019-02-19T17:36:26.332Z,4.20
2019-02-19T17:39:21.965Z,4.20
2019-02-19T17:42:05.023Z,4.20
2019-02-19T17:45:00.592Z,4.20
2019-02-19T17:47:46.110Z,4.20
2019-02-19T17:50:28.471Z,4.20
2019-02-19T17:53:21.501Z,4.20
2019-02-19T17:56:08.574Z,4.20
2019-02-19T17:59:13.371Z,4.20
2019-02-19T18:01:58.959Z,4.20
2019-02-19T18:04:38.775Z,4.10
2019-02-19T18:07:47.607Z,4.00
2019-02-19T18:10:43.557Z,4.00
2019-02-19T18:13:31.657Z,4.00
2019-02-19T18:16:21.493Z,4.10
2019-02-19T18:18:51.641Z,4.10
2019-02-19T18:21:22.149Z,4.20
2019-02-19T18:23:51.566Z,4.20
2019-02-19T18:26:18.917Z,4.20
2019-02-19T18:28:46.638Z,4.20
2019-02-19T18:31:14.377Z,4.20
2019-02-19T18:33:41.873Z,4.20
2019-02-19T18:36:09.243Z,4.20
2019-02-19T18:38:36.847Z,4.20
2019-02-19T18:41:04.338Z,4.20
2019-02-19T18:43:34.412Z,4.20
2019-02-19T18:46:01.846Z,4.20
2019-02-19T18:48:29.296Z,4.20
2019-02-19T18:50:58.574Z,4.20
2019-02-19T18:53:27.131Z,4.30
2019-02-19T18:55:54.567Z,4.30
2019-02-19T18:58:22.068Z,4.30
2019-02-19T19:00:49.432Z,4.30
2019-02-19T19:03:16.801Z,4.30
2019-02-19T19:05:44.239Z,4.30
2019-02-19T19:08:11.698Z,4.30
2019-02-19T19:10:39.077Z,4.30
2019-02-19T19:13:06.606Z,4.30
2019-02-19T19:15:34.231Z,4.30
2019-02-19T19:18:01.594Z,4.30
2019-02-19T19:20:29.054Z,4.30
2019-02-19T19:22:57.018Z,4.30
2019-02-19T19:25:24.488Z,4.30
2019-02-19T19:27:52.421Z,4.30
2019-02-19T19:30:20.100Z,4.30
2019-02-19T19:32:47.633Z,4.30
2019-02-19T19:35:15.115Z,4.30
2019-02-19T19:37:44.168Z,4.20
2019-02-19T19:40:11.682Z,4.20
2019-02-19T19:42:48.967Z,4.20
2019-02-19T19:45:16.605Z,4.20
2019-02-19T19:47:44.166Z,4.20
2019-02-19T19:50:12.022Z,4.20
2019-02-19T19:52:39.911Z,4.20
2019-02-19T19:55:09.235Z,4.20
2019-02-19T19:57:42.470Z,4.20
2019-02-19T20:00:09.860Z,4.20
2019-02-19T20:02:38.558Z,4.20
2019-02-19T20:05:06.396Z,4.20
2019-02-19T20:07:33.784Z,4.20
2019-02-19T20:10:01.143Z,4.20
2019-02-19T20:12:28.850Z,4.20
2019-02-19T20:14:56.587Z,4.20
2019-02-19T20:17:23.882Z,4.20
2019-02-19T20:19:51.504Z,4.20
2019-02-19T20:22:18.976Z,4.20
2019-02-19T20:24:46.302Z,4.10
2019-02-19T20:27:13.813Z,4.10
2019-02-19T20:29:41.240Z,4.10
2019-02-19T20:32:08.762Z,4.10
2019-02-19T20:34:36.212Z,4.10
2019-02-19T20:37:03.544Z,4.10
2019-02-19T20:39:30.990Z,4.00
2019-02-19T20:41:58.491Z,4.00
2019-02-19T20:44:26.018Z,4.00
2019-02-19T20:46:53.530Z,4.00
2019-02-19T20:49:22.342Z,4.00
2019-02-19T20:51:49.848Z,4.00
2019-02-19T20:54:17.473Z,3.90
2019-02-19T20:56:45.013Z,3.90
2019-02-19T20:59:14.446Z,3.90
2019-02-19T21:01:41.896Z,3.90
2019-02-19T21:04:09.389Z,3.90
2019-02-19T21:06:36.794Z,3.90
2019-02-19T21:09:05.036Z,3.90
2019-02-19T21:11:32.673Z,3.90
2019-02-19T21:14:00.101Z,3.90
2019-02-19T21:16:27.554Z,3.90
2019-02-19T21:18:55.510Z,3.90
2019-02-19T21:21:23.057Z,3.90
2019-02-19T21:23:52.327Z,3.90
2019-02-19T21:26:19.707Z,3.90
2019-02-19T21:28:47.146Z,3.90
2019-02-19T21:31:14.729Z,3.90
2019-02-19T21:33:42.271Z,3.90
2019-02-19T21:36:09.811Z,3.90
2019-02-19T21:38:37.139Z,3.90
2019-02-19T21:41:04.761Z,3.90
2019-02-19T21:43:32.059Z,3.90
2019-02-19T21:45:59.467Z,3.90
2019-02-19T21:48:26.852Z,3.80
2019-02-19T21:50:54.227Z,3.80
2019-02-19T21:53:21.595Z,3.80
2019-02-19T21:55:50.298Z,3.80
2019-02-19T21:58:17.878Z,3.80
2019-02-19T22:00:45.639Z,3.80
2019-02-19T22:03:13.118Z,3.70
2019-02-19T22:05:40.497Z,3.80
2019-02-19T22:08:07.799Z,3.70
2019-02-19T22:10:35.203Z,3.70
2019-02-19T22:13:02.691Z,3.70
2019-02-19T22:15:30.075Z,3.70
2019-02-19T22:17:57.414Z,3.70
2019-02-19T22:20:42.622Z,3.70
2019-02-19T22:23:10.099Z,3.70
2019-02-19T22:25:37.466Z,3.70
2019-02-19T22:28:05.931Z,3.70
2019-02-19T22:30:33.330Z,3.70
2019-02-19T22:33:00.867Z,3.70
2019-02-19T22:35:28.380Z,3.70
2019-02-19T22:37:56.016Z,3.70
2019-02-19T22:40:23.582Z,3.70
2019-02-19T22:42:51.133Z,3.70
2019-02-19T22:45:18.714Z,3.70
2019-02-19T22:47:53.170Z,3.70
2019-02-19T22:50:15.661Z,3.70
2019-02-19T22:52:43.221Z,3.70
2019-02-19T22:55:16.696Z,3.70
2019-02-19T22:57:44.616Z,3.70
2019-02-19T23:00:33.413Z,3.70
2019-02-19T23:03:00.864Z,3.70
2019-02-19T23:05:28.324Z,3.60
2019-02-19T23:07:55.681Z,3.60
2019-02-19T23:10:23.042Z,3.60
2019-02-19T23:12:50.368Z,3.60
2019-02-19T23:15:17.653Z,3.60
2019-02-19T23:17:45.142Z,3.50
2019-02-19T23:20:12.455Z,3.60
2019-02-19T23:22:40.962Z,3.50
2019-02-19T23:25:08.393Z,3.60
2019-02-19T23:27:35.813Z,3.50
2019-02-19T23:30:04.426Z,3.50
2019-02-19T23:32:31.868Z,3.50
2019-02-19T23:35:13.795Z,3.50
2019-02-19T23:37:41.245Z,3.50
2019-02-19T23:40:08.571Z,3.50
2019-02-19T23:42:36.329Z,3.50
2019-02-19T23:45:04.169Z,3.50
2019-02-19T23:47:31.664Z,3.50
2019-02-19T23:49:59.863Z,3.50
2019-02-19T23:52:30.433Z,3.50
2019-02-19T23:54:56.585Z,3.50
2019-02-19T23:57:24.075Z,3.50
2019-02-19T23:59:51.577Z,3.50
